Blanche, North Carolina
Current Conditions -  °F | °C
As of 2:53 AM on Friday 21 Nov 2014 (Local Time) from KDAN Reporting Station
Clear Clear  
Wind Chill: 31°   Ceiling: Unl
Heat Index: 36°   Visibility: 10mi
Dew Point: 16°   Wind: 6mph
Humidity: 44%   Direction: 360°N
Pressure: 30.22"   Gusts: NA
Location:  36.5305°N, 79.302°W
Report Text: KDAN 210753Z AUTO 36005KT 10SM CLR 02/M09 A3022 RMK AO2 SLP228 T00221089
Loading
Personal Weather Stations






























Interactive Weather Map New forecast layout! Learn more

10-Day Weather Forecast

Advertisements
Track Severe Weather on mobile